Time;durP1;ratioP1;P1;durP2;ratioP2;P2;SDS_P1;SDS_P2;PMS_P1;PMS_P2;Temp;Humidity;BMP_temperature;BMP_pressure;BME280_temperature;BME280_humidity;BME280_pressure;Samples;Min_cycle;Max_cycle;Signal;HPM_P1;HPM_P2
2021/12/15 00:01:21;;;;;;;21.03;12.30;;;;;;;;;;5154902;27;20218;-91
2021/12/15 00:03:49;;;;;;;27.10;14.30;;;;;;;;;;5155947;27;20262;-91
2021/12/15 00:06:18;;;;;;;20.97;12.07;;;;;;;;;;5155933;27;20255;-91
2021/12/15 00:08:48;;;;;;;27.10;13.90;;;;;;;;;;5153629;27;20209;-90
2021/12/15 00:11:17;;;;;;;25.33;14.10;;;;;;;;;;5152219;27;20618;-91
2021/12/15 00:13:45;;;;;;;27.23;13.93;;;;;;;;;;5155971;27;20198;-90
2021/12/15 00:16:12;;;;;;;23.83;13.40;;;;;;;;;;5156068;27;20618;-91
2021/12/15 00:18:41;;;;;;;22.70;12.27;;;;;;;;;;5150863;27;20608;-91
2021/12/15 00:21:10;;;;;;;22.33;11.80;;;;;;;;;;5154929;27;20222;-91
2021/12/15 00:23:37;;;;;;;19.80;11.83;;;;;;;;;;5155491;27;20320;-91
2021/12/15 00:26:05;;;;;;;25.03;13.17;;;;;;;;;;5153974;27;20227;-91
2021/12/15 00:28:34;;;;;;;24.90;13.90;;;;;;;;;;5146915;27;20244;-91
2021/12/15 00:31:02;;;;;;;22.33;12.50;;;;;;;;;;5155421;27;20249;-90
2021/12/15 00:33:29;;;;;;;23.63;13.43;;;;;;;;;;5154005;27;20445;-91
2021/12/15 00:35:56;;;;;;;23.77;14.10;;;;;;;;;;5147050;27;20226;-90
2021/12/15 00:38:24;;;;;;;26.53;13.73;;;;;;;;;;5155184;27;20227;-91
2021/12/15 00:40:51;;;;;;;22.87;12.77;;;;;;;;;;5155408;27;20234;-91
2021/12/15 00:43:19;;;;;;;23.70;11.80;;;;;;;;;;5150809;27;20610;-91
2021/12/15 00:45:48;;;;;;;20.23;11.97;;;;;;;;;;5155177;27;20202;-91
2021/12/15 00:48:16;;;;;;;25.23;13.60;;;;;;;;;;5155581;27;20233;-91
2021/12/15 00:50:44;;;;;;;24.13;12.33;;;;;;;;;;5153505;27;20271;-91
2021/12/15 00:53:11;;;;;;;22.47;12.30;;;;;;;;;;5151070;27;20222;-91
2021/12/15 00:55:39;;;;;;;26.07;14.43;;;;;;;;;;5155095;27;20195;-91
2021/12/15 00:58:08;;;;;;;26.27;14.30;;;;;;;;;;5155338;27;20647;-91
2021/12/15 01:00:36;;;;;;;23.23;12.60;;;;;;;;;;5152548;27;20314;-91
2021/12/15 01:03:05;;;;;;;19.50;11.47;;;;;;;;;;5154851;27;20256;-91
2021/12/15 01:05:35;;;;;;;19.17;11.80;;;;;;;;;;5155051;27;20206;-91
2021/12/15 01:08:03;;;;;;;21.93;11.80;;;;;;;;;;5155190;27;20206;-91
2021/12/15 01:10:43;;;;;;;21.73;12.93;;;;;;;;;;5147071;27;20211;-91
2021/12/15 01:21:27;;;;;;;20.33;11.57;;;;;;;;;;5148025;27;20221;-91
2021/12/15 01:23:54;;;;;;;22.53;11.90;;;;;;;;;;5154732;27;20230;-91
2021/12/15 01:26:21;;;;;;;20.73;11.57;;;;;;;;;;5149687;27;20845;-91
2021/12/15 01:28:49;;;;;;;20.27;11.23;;;;;;;;;;5137623;27;20207;-91
2021/12/15 01:31:16;;;;;;;21.13;10.97;;;;;;;;;;5154537;27;20246;-91
2021/12/15 01:33:45;;;;;;;18.57;10.97;;;;;;;;;;5154343;27;20199;-91
2021/12/15 01:36:12;;;;;;;19.60;10.83;;;;;;;;;;5147048;27;20289;-91
2021/12/15 01:38:41;;;;;;;19.07;10.63;;;;;;;;;;5149679;27;20251;-91
2021/12/15 01:41:14;;;;;;;18.97;11.13;;;;;;;;;;5154249;27;20226;-91
2021/12/15 01:46:51;;;;;;;19.90;10.97;;;;;;;;;;5154634;27;20206;-91
2021/12/15 01:46:55;;;;;;;19.93;12.03;;;;;;;;;;5145107;27;20207;-91
2021/12/15 01:49:25;;;;;;;22.33;11.60;;;;;;;;;;5154296;27;20191;-91
2021/12/15 01:51:53;;;;;;;22.20;12.10;;;;;;;;;;5154487;27;20226;-91
2021/12/15 01:54:21;;;;;;;23.97;12.27;;;;;;;;;;5142617;27;20619;-91
2021/12/15 01:56:49;;;;;;;19.90;10.67;;;;;;;;;;5153888;27;20199;-90
2021/12/15 01:59:17;;;;;;;22.33;11.77;;;;;;;;;;5154275;27;20582;-91
2021/12/15 02:01:44;;;;;;;21.00;11.13;;;;;;;;;;5146742;27;20322;-91
2021/12/15 02:04:12;;;;;;;18.63;10.37;;;;;;;;;;5147438;27;20227;-91
2021/12/15 02:06:43;;;;;;;19.13;9.80;;;;;;;;;;5154168;27;20230;-91
2021/12/15 02:09:10;;;;;;;19.00;11.10;;;;;;;;;;5151325;27;20227;-91
2021/12/15 02:11:37;;;;;;;19.47;10.60;;;;;;;;;;5153791;27;20580;-91
2021/12/15 02:14:05;;;;;;;19.93;11.20;;;;;;;;;;5154053;27;20207;-91
2021/12/15 02:16:32;;;;;;;17.07;10.70;;;;;;;;;;5153959;27;20228;-91
2021/12/15 02:18:59;;;;;;;20.03;11.37;;;;;;;;;;5148559;27;20210;-91
2021/12/15 02:21:28;;;;;;;21.40;11.87;;;;;;;;;;5146671;27;20309;-91
2021/12/15 02:23:59;;;;;;;19.87;11.40;;;;;;;;;;5153719;27;20199;-91
2021/12/15 02:26:28;;;;;;;18.17;10.50;;;;;;;;;;5153039;27;20602;-91
2021/12/15 02:28:57;;;;;;;20.07;11.47;;;;;;;;;;5133979;27;20294;-90
2021/12/15 02:31:37;;;;;;;20.33;11.60;;;;;;;;;;5154550;27;20301;-90
2021/12/15 02:34:19;;;;;;;17.03;9.63;;;;;;;;;;5154602;27;20202;-90
2021/12/15 02:39:48;;;;;;;15.60;9.57;;;;;;;;;;5072806;28;20251;-91
2021/12/15 02:45:20;;;;;;;20.30;10.37;;;;;;;;;;5128324;27;20322;-91
2021/12/15 02:47:48;;;;;;;17.43;11.03;;;;;;;;;;5157259;27;20202;-90
2021/12/15 02:50:18;;;;;;;18.03;10.17;;;;;;;;;;5157611;27;20570;-91
2021/12/15 02:52:47;;;;;;;18.90;10.27;;;;;;;;;;5152341;27;20282;-90
2021/12/15 02:55:15;;;;;;;18.63;10.23;;;;;;;;;;5148444;27;20243;-90
2021/12/15 02:57:42;;;;;;;19.43;10.80;;;;;;;;;;5156129;27;20226;-91
2021/12/15 03:00:20;;;;;;;20.50;10.47;;;;;;;;;;5157522;27;20307;-91
2021/12/15 03:03:25;;;;;;;17.13;9.73;;;;;;;;;;5151876;27;20202;-91
2021/12/15 03:05:57;;;;;;;17.90;10.00;;;;;;;;;;5157259;27;20226;-90
2021/12/15 03:08:46;;;;;;;20.20;11.47;;;;;;;;;;5157735;27;20290;-91
2021/12/15 03:16:43;;;;;;;17.57;10.90;;;;;;;;;;5149995;27;20201;-91
2021/12/15 03:19:11;;;;;;;21.27;11.67;;;;;;;;;;5147590;27;20294;-91
2021/12/15 03:21:39;;;;;;;17.77;10.53;;;;;;;;;;5144957;27;20227;-90
2021/12/15 03:24:12;;;;;;;21.40;11.13;;;;;;;;;;5156053;27;20234;-91
2021/12/15 03:26:46;;;;;;;20.50;11.07;;;;;;;;;;5156992;27;20223;-91
2021/12/15 03:35:00;;;;;;;18.23;10.97;;;;;;;;;;5156620;27;20194;-91
2021/12/15 03:37:28;;;;;;;23.40;12.03;;;;;;;;;;5153049;27;20209;-91
2021/12/15 03:40:00;;;;;;;19.77;11.43;;;;;;;;;;5156350;27;20293;-90
2021/12/15 03:42:29;;;;;;;21.33;11.97;;;;;;;;;;5156845;27;20199;-91
2021/12/15 03:44:57;;;;;;;22.00;11.47;;;;;;;;;;5156900;27;20198;-90
2021/12/15 03:47:26;;;;;;;19.40;10.93;;;;;;;;;;5146446;27;20230;-91
2021/12/15 03:49:54;;;;;;;17.10;9.63;;;;;;;;;;5153741;27;20218;-91
2021/12/15 03:52:22;;;;;;;17.87;9.97;;;;;;;;;;5152769;27;20206;-91
2021/12/15 03:54:49;;;;;;;21.60;11.83;;;;;;;;;;5152349;27;20794;-91
2021/12/15 03:57:18;;;;;;;19.33;10.40;;;;;;;;;;5156365;27;20230;-91
2021/12/15 03:59:45;;;;;;;19.40;10.53;;;;;;;;;;5146318;27;20276;-91
2021/12/15 04:02:14;;;;;;;19.13;10.73;;;;;;;;;;5145685;27;20202;-91
2021/12/15 04:04:42;;;;;;;18.73;10.63;;;;;;;;;;5151825;27;20201;-91
2021/12/15 04:07:10;;;;;;;19.63;10.77;;;;;;;;;;5156175;27;20202;-90
2021/12/15 04:09:37;;;;;;;20.73;10.23;;;;;;;;;;5146324;27;20279;-91
2021/12/15 04:12:05;;;;;;;14.30;8.97;;;;;;;;;;5154844;27;20239;-91
2021/12/15 04:14:43;;;;;;;18.07;9.87;;;;;;;;;;5156045;27;20615;-91
2021/12/15 04:17:26;;;;;;;17.83;9.57;;;;;;;;;;5147872;27;20194;-91
2021/12/15 04:19:54;;;;;;;16.07;10.23;;;;;;;;;;5155605;27;20214;-91
2021/12/15 04:22:21;;;;;;;16.80;9.37;;;;;;;;;;5152687;27;20206;-91
2021/12/15 04:24:49;;;;;;;16.57;9.73;;;;;;;;;;5146798;27;20211;-91
2021/12/15 04:27:16;;;;;;;19.17;10.67;;;;;;;;;;5151885;27;20651;-90
2021/12/15 04:29:46;;;;;;;18.80;10.97;;;;;;;;;;5155081;27;20621;-91
2021/12/15 04:32:17;;;;;;;17.93;10.73;;;;;;;;;;5156287;27;20206;-91
2021/12/15 04:34:44;;;;;;;17.17;10.13;;;;;;;;;;5151195;27;20203;-91
2021/12/15 04:37:11;;;;;;;16.47;9.60;;;;;;;;;;5152861;27;20206;-91
2021/12/15 04:39:38;;;;;;;21.60;11.60;;;;;;;;;;5155088;27;20647;-90
2021/12/15 04:42:06;;;;;;;19.90;10.73;;;;;;;;;;5155699;27;20203;-91
2021/12/15 04:47:38;;;;;;;15.73;9.13;;;;;;;;;;5136498;27;20243;-91
2021/12/15 04:50:07;;;;;;;17.13;9.67;;;;;;;;;;5153422;27;20627;-91
2021/12/15 04:52:34;;;;;;;18.03;10.27;;;;;;;;;;5155106;27;20298;-90
2021/12/15 04:55:02;;;;;;;18.30;10.93;;;;;;;;;;5151090;27;20294;-90
2021/12/15 04:57:29;;;;;;;15.40;9.63;;;;;;;;;;5148570;27;20266;-91
2021/12/15 04:59:57;;;;;;;19.20;10.10;;;;;;;;;;5154858;27;20302;-91
2021/12/15 05:02:24;;;;;;;14.73;9.37;;;;;;;;;;5155248;27;20237;-91
2021/12/15 05:04:54;;;;;;;19.33;10.23;;;;;;;;;;5149217;27;20268;-91
2021/12/15 05:07:21;;;;;;;17.03;9.60;;;;;;;;;;5151185;27;20194;-90
2021/12/15 05:09:50;;;;;;;20.20;9.80;;;;;;;;;;5151175;27;20210;-90
2021/12/15 05:12:18;;;;;;;18.23;9.87;;;;;;;;;;5154911;27;20535;-91
2021/12/15 05:14:46;;;;;;;16.43;9.30;;;;;;;;;;5146806;27;20243;-91
2021/12/15 05:17:13;;;;;;;14.40;9.20;;;;;;;;;;5138043;27;20194;-90
2021/12/15 05:19:40;;;;;;;17.33;9.27;;;;;;;;;;5150460;27;20264;-91
2021/12/15 05:22:10;;;;;;;14.70;8.70;;;;;;;;;;5149649;27;20226;-91
2021/12/15 05:24:53;;;;;;;18.90;11.00;;;;;;;;;;5155510;27;20213;-91
2021/12/15 05:27:21;;;;;;;16.13;8.93;;;;;;;;;;5152649;27;20226;-91
2021/12/15 05:29:49;;;;;;;14.70;8.83;;;;;;;;;;5147028;27;20228;-90
2021/12/15 05:32:18;;;;;;;18.07;9.63;;;;;;;;;;5156741;27;20239;-91
2021/12/15 05:34:46;;;;;;;14.67;9.63;;;;;;;;;;5162050;27;20279;-90
2021/12/15 05:37:16;;;;;;;15.70;9.30;;;;;;;;;;5145764;27;20663;-91
2021/12/15 05:39:44;;;;;;;14.50;8.67;;;;;;;;;;5153943;27;20692;-91
2021/12/15 05:42:11;;;;;;;16.93;9.47;;;;;;;;;;5152257;27;20297;-92
2021/12/15 05:44:38;;;;;;;13.93;8.23;;;;;;;;;;5138400;27;20204;-91
2021/12/15 05:47:06;;;;;;;15.33;9.47;;;;;;;;;;5152824;27;20271;-91
2021/12/15 05:49:34;;;;;;;17.97;8.40;;;;;;;;;;5154432;27;20195;-91
2021/12/15 05:52:01;;;;;;;16.53;9.17;;;;;;;;;;5154335;27;20267;-91
2021/12/15 05:54:37;;;;;;;16.30;8.80;;;;;;;;;;5140676;27;20203;-91
2021/12/15 05:57:04;;;;;;;14.27;8.80;;;;;;;;;;5145845;27;20206;-91
2021/12/15 05:59:32;;;;;;;15.20;8.67;;;;;;;;;;5154214;27;20206;-91
2021/12/15 06:01:59;;;;;;;16.07;9.40;;;;;;;;;;5154110;27;20226;-90
2021/12/15 06:04:26;;;;;;;15.47;9.30;;;;;;;;;;5144236;27;20814;-90
2021/12/15 06:06:54;;;;;;;14.97;9.00;;;;;;;;;;5151153;27;20731;-89
2021/12/15 06:09:21;;;;;;;16.43;8.70;;;;;;;;;;5153950;27;20206;-90
2021/12/15 06:11:53;;;;;;;13.73;8.63;;;;;;;;;;5150466;27;20219;-92
2021/12/15 06:14:24;;;;;;;14.43;8.80;;;;;;;;;;5142475;27;20223;-90
2021/12/15 06:17:11;;;;;;;14.97;9.00;;;;;;;;;;5150496;27;20213;-90
2021/12/15 06:19:39;;;;;;;16.83;9.30;;;;;;;;;;5153603;27;20282;-90
2021/12/15 06:22:07;;;;;;;17.90;10.03;;;;;;;;;;5157557;27;20249;-90
2021/12/15 06:24:36;;;;;;;16.50;9.43;;;;;;;;;;5152719;27;20248;-90
2021/12/15 06:27:10;;;;;;;15.40;9.43;;;;;;;;;;5157223;27;20206;-90
2021/12/15 06:29:37;;;;;;;12.30;7.57;;;;;;;;;;5157924;27;20194;-91
2021/12/15 06:32:05;;;;;;;12.33;7.57;;;;;;;;;;5154430;27;20290;-90
2021/12/15 06:34:33;;;;;;;14.27;7.37;;;;;;;;;;5159084;27;20764;-90
2021/12/15 06:37:00;;;;;;;9.67;6.37;;;;;;;;;;5157285;27;20616;-90
2021/12/15 06:39:27;;;;;;;12.43;7.13;;;;;;;;;;5157910;27;20283;-90
2021/12/15 06:41:55;;;;;;;13.13;8.57;;;;;;;;;;5155576;27;20298;-90
2021/12/15 06:44:24;;;;;;;9.13;6.77;;;;;;;;;;5158043;27;20198;-90
2021/12/15 07:00:40;;;;;;;8.23;6.53;;;;;;;;;;5152570;27;20225;-89
2021/12/15 07:03:07;;;;;;;9.17;6.13;;;;;;;;;;5157947;27;20206;-90
2021/12/15 07:05:35;;;;;;;9.83;6.20;;;;;;;;;;5157786;27;20214;-90
2021/12/15 07:08:04;;;;;;;8.33;6.23;;;;;;;;;;5160438;27;20234;-90
2021/12/15 07:10:32;;;;;;;8.23;5.97;;;;;;;;;;5157609;27;20245;-90
2021/12/15 07:13:01;;;;;;;9.03;6.03;;;;;;;;;;5157675;27;20224;-90
2021/12/15 07:15:28;;;;;;;8.40;5.97;;;;;;;;;;5154565;27;20522;-90
2021/12/15 07:18:03;;;;;;;6.00;5.13;;;;;;;;;;5155152;27;20210;-90
2021/12/15 07:20:41;;;;;;;7.63;5.80;;;;;;;;;;5161971;27;20753;-90
2021/12/15 07:23:09;;;;;;;6.53;5.10;;;;;;;;;;5159317;27;20222;-89
2021/12/15 07:25:37;;;;;;;6.83;4.90;;;;;;;;;;5154694;27;20255;-89
2021/12/15 07:28:05;;;;;;;6.90;5.20;;;;;;;;;;5157339;27;20263;-89
2021/12/15 07:30:33;;;;;;;6.87;4.83;;;;;;;;;;5157009;27;20633;-90
2021/12/15 07:33:02;;;;;;;6.17;5.13;;;;;;;;;;5157519;27;20202;-90
2021/12/15 07:35:30;;;;;;;7.10;5.37;;;;;;;;;;5148967;27;20345;-89
2021/12/15 07:37:57;;;;;;;8.07;5.30;;;;;;;;;;5157006;27;20194;-90
2021/12/15 07:40:25;;;;;;;7.27;5.00;;;;;;;;;;5156590;27;20825;-90
2021/12/15 07:43:06;;;;;;;11.10;6.87;;;;;;;;;;5146472;27;20572;-90
2021/12/15 07:45:35;;;;;;;10.87;6.73;;;;;;;;;;5143428;27;20538;-90
2021/12/15 07:48:04;;;;;;;9.73;7.00;;;;;;;;;;5156854;27;20282;-90
2021/12/15 07:50:33;;;;;;;12.60;7.73;;;;;;;;;;5156368;27;20707;-90
2021/12/15 07:53:00;;;;;;;27.33;15.40;;;;;;;;;;5156632;27;20648;-90
2021/12/15 07:55:28;;;;;;;10.47;7.33;;;;;;;;;;5144019;27;20245;-90
2021/12/15 07:57:55;;;;;;;10.43;7.20;;;;;;;;;;5135900;27;20651;-90
2021/12/15 08:00:23;;;;;;;11.80;7.63;;;;;;;;;;5135935;27;20265;-90
2021/12/15 08:02:51;;;;;;;10.03;6.13;;;;;;;;;;5153127;27;20298;-90
2021/12/15 08:05:20;;;;;;;9.00;5.33;;;;;;;;;;5156420;27;20206;-89
2021/12/15 08:07:48;;;;;;;9.50;5.70;;;;;;;;;;5156412;27;20207;-90
2021/12/15 08:10:16;;;;;;;6.73;4.93;;;;;;;;;;5156755;27;20226;-90
2021/12/15 08:12:45;;;;;;;9.13;5.53;;;;;;;;;;5156562;27;20194;-89
2021/12/15 08:15:12;;;;;;;6.77;5.00;;;;;;;;;;5155832;27;20579;-89
2021/12/15 08:17:40;;;;;;;8.37;5.37;;;;;;;;;;5156779;27;20700;-90
2021/12/15 08:20:09;;;;;;;9.03;5.77;;;;;;;;;;5156222;27;20275;-91
2021/12/15 08:22:38;;;;;;;6.67;4.83;;;;;;;;;;5151739;27;20267;-89
2021/12/15 08:25:06;;;;;;;6.87;4.97;;;;;;;;;;5156080;27;20289;-90
2021/12/15 08:27:34;;;;;;;5.20;4.70;;;;;;;;;;5155689;27;20202;-89
2021/12/15 08:30:01;;;;;;;6.67;5.20;;;;;;;;;;5140808;27;20223;-90
2021/12/15 08:32:28;;;;;;;6.80;4.70;;;;;;;;;;5156158;27;20191;-89
2021/12/15 08:34:56;;;;;;;8.70;5.60;;;;;;;;;;5156022;27;20206;-90
2021/12/15 08:37:23;;;;;;;47.40;21.97;;;;;;;;;;5147611;27;20656;-89
2021/12/15 08:39:52;;;;;;;67.03;31.30;;;;;;;;;;5152313;27;20345;-89
2021/12/15 08:42:19;;;;;;;40.03;21.57;;;;;;;;;;5154899;27;20214;-89
2021/12/15 08:44:47;;;;;;;8.03;5.97;;;;;;;;;;5150633;27;20207;-92
2021/12/15 08:47:14;;;;;;;8.30;5.53;;;;;;;;;;5147476;27;20226;-91
2021/12/15 08:49:42;;;;;;;7.53;5.70;;;;;;;;;;5139477;27;20244;-89
2021/12/15 08:52:09;;;;;;;5.93;4.43;;;;;;;;;;5156516;27;20258;-91
2021/12/15 08:54:42;;;;;;;7.77;5.33;;;;;;;;;;5161292;27;20202;-89
2021/12/15 08:57:10;;;;;;;6.37;4.80;;;;;;;;;;5157166;27;20201;-91
2021/12/15 08:59:38;;;;;;;5.03;4.17;;;;;;;;;;5145368;27;20280;-92
2021/12/15 09:02:06;;;;;;;5.90;4.43;;;;;;;;;;5149277;27;20714;-91
2021/12/15 09:04:33;;;;;;;5.73;4.90;;;;;;;;;;5151844;27;20203;-91
2021/12/15 09:07:00;;;;;;;7.27;5.17;;;;;;;;;;5151770;27;20233;-92
2021/12/15 09:09:28;;;;;;;7.10;5.10;;;;;;;;;;5144230;27;20262;-92
2021/12/15 09:11:56;;;;;;;6.47;5.37;;;;;;;;;;5148977;27;20233;-91
2021/12/15 09:14:25;;;;;;;6.43;4.70;;;;;;;;;;5152314;27;20206;-90
2021/12/15 09:16:53;;;;;;;6.57;4.77;;;;;;;;;;5147205;27;20691;-91
2021/12/15 09:19:21;;;;;;;7.27;5.50;;;;;;;;;;5150661;27;20218;-91
2021/12/15 09:21:51;;;;;;;6.80;5.30;;;;;;;;;;5151605;27;20626;-91
2021/12/15 09:24:18;;;;;;;6.90;5.40;;;;;;;;;;5146194;27;20203;-90
2021/12/15 09:26:45;;;;;;;6.73;4.80;;;;;;;;;;5147198;27;20210;-91
2021/12/15 09:29:13;;;;;;;6.43;4.93;;;;;;;;;;5139374;27;20251;-91
2021/12/15 09:31:42;;;;;;;6.73;4.93;;;;;;;;;;5131805;27;20219;-91
2021/12/15 09:34:14;;;;;;;8.20;5.40;;;;;;;;;;5142860;27;20207;-91
2021/12/15 09:36:42;;;;;;;6.90;5.10;;;;;;;;;;5146228;27;20267;-91
2021/12/15 09:39:11;;;;;;;6.10;4.97;;;;;;;;;;5151439;27;20209;-90
2021/12/15 09:41:54;;;;;;;5.83;5.07;;;;;;;;;;5139151;27;20223;-91
2021/12/15 09:44:24;;;;;;;5.47;4.43;;;;;;;;;;5144142;27;20243;-90
2021/12/15 09:47:15;;;;;;;8.17;5.33;;;;;;;;;;5151242;27;20198;-90
2021/12/15 10:03:47;;;;;;;5.73;4.20;;;;;;;;;;5145187;27;20194;-91
2021/12/15 10:06:32;;;;;;;5.27;4.10;;;;;;;;;;5150219;27;20209;-91
2021/12/15 10:11:52;;;;;;;4.70;4.30;;;;;;;;;;5150816;27;20220;-91
2021/12/15 10:17:36;;;;;;;3.50;3.20;;;;;;;;;;5147317;27;20272;-92
2021/12/15 10:20:06;;;;;;;2.67;2.47;;;;;;;;;;5149481;27;20309;-90
2021/12/15 10:22:38;;;;;;;2.60;2.37;;;;;;;;;;5154327;27;20237;-90
2021/12/15 10:25:07;;;;;;;2.50;2.30;;;;;;;;;;5134209;27;20210;-91
2021/12/15 10:27:38;;;;;;;2.70;2.50;;;;;;;;;;5156807;27;20642;-91
2021/12/15 10:30:08;;;;;;;3.40;2.87;;;;;;;;;;5146922;27;20215;-91
2021/12/15 10:32:36;;;;;;;2.90;2.60;;;;;;;;;;5172619;27;20194;-89
2021/12/15 10:35:08;;;;;;;2.73;2.53;;;;;;;;;;5143013;27;20207;-89
2021/12/15 10:37:37;;;;;;;2.80;2.60;;;;;;;;;;5146954;27;20229;-91
2021/12/15 10:40:15;;;;;;;2.90;2.60;;;;;;;;;;5144711;27;20756;-91
2021/12/15 10:43:04;;;;;;;3.87;3.30;;;;;;;;;;5133349;27;20211;-91
2021/12/15 10:45:35;;;;;;;2.97;2.73;;;;;;;;;;5149836;27;20217;-92
2021/12/15 10:48:02;;;;;;;2.63;2.47;;;;;;;;;;5152745;27;20681;-92
2021/12/15 10:50:31;;;;;;;2.80;2.60;;;;;;;;;;5151441;27;20296;-90
2021/12/15 10:53:01;;;;;;;4.67;3.20;;;;;;;;;;5144178;27;20667;-91
2021/12/15 10:55:32;;;;;;;2.40;2.20;;;;;;;;;;5150207;27;20247;-91
2021/12/15 10:58:00;;;;;;;3.03;2.70;;;;;;;;;;5152450;27;20690;-91
2021/12/15 11:00:34;;;;;;;2.73;2.53;;;;;;;;;;5144674;27;20315;-91
2021/12/15 11:03:06;;;;;;;3.03;2.67;;;;;;;;;;5151841;27;20222;-91
2021/12/15 11:05:34;;;;;;;2.87;2.67;;;;;;;;;;5154273;27;20198;-91
2021/12/15 11:08:02;;;;;;;2.70;2.40;;;;;;;;;;5147201;27;20230;-91
2021/12/15 11:10:31;;;;;;;3.63;2.50;;;;;;;;;;5150770;27;20256;-90
2021/12/15 11:12:59;;;;;;;2.43;2.17;;;;;;;;;;5154820;27;20620;-91
2021/12/15 11:15:28;;;;;;;2.70;2.10;;;;;;;;;;5153771;27;20195;-91
2021/12/15 11:17:57;;;;;;;2.63;2.27;;;;;;;;;;5153882;27;20231;-91
2021/12/15 11:20:25;;;;;;;2.83;2.53;;;;;;;;;;5158452;27;20238;-90
2021/12/15 11:22:58;;;;;;;3.33;3.03;;;;;;;;;;5157189;27;20218;-91
2021/12/15 11:25:31;;;;;;;3.33;3.03;;;;;;;;;;5164576;27;20216;-91
2021/12/15 11:28:00;;;;;;;2.40;2.20;;;;;;;;;;5150642;27;20322;-90
2021/12/15 11:30:29;;;;;;;2.60;2.40;;;;;;;;;;5168246;27;20242;-91
2021/12/15 11:32:57;;;;;;;2.60;2.37;;;;;;;;;;5158323;27;20703;-91
2021/12/15 11:35:27;;;;;;;2.47;2.27;;;;;;;;;;5163764;27;20286;-90
2021/12/15 11:38:05;;;;;;;2.60;2.40;;;;;;;;;;5146645;27;20234;-92
2021/12/15 11:40:35;;;;;;;2.40;2.20;;;;;;;;;;5157467;27;20266;-91
2021/12/15 11:43:02;;;;;;;2.50;2.40;;;;;;;;;;5169526;27;20213;-91
2021/12/15 11:45:30;;;;;;;2.57;2.37;;;;;;;;;;5150771;27;20207;-91
2021/12/15 11:48:11;;;;;;;5.67;2.70;;;;;;;;;;5153661;27;20202;-91
2021/12/15 11:50:39;;;;;;;3.53;3.20;;;;;;;;;;5156728;27;20600;-91
2021/12/15 11:53:13;;;;;;;3.13;2.83;;;;;;;;;;5144802;27;20207;-91
2021/12/15 11:55:40;;;;;;;2.60;2.40;;;;;;;;;;5159168;27;20222;-89
2021/12/15 11:58:08;;;;;;;3.97;3.00;;;;;;;;;;5156134;27;20873;-89
2021/12/15 12:00:35;;;;;;;3.33;2.13;;;;;;;;;;5155251;27;20646;-90
2021/12/15 12:03:03;;;;;;;6.63;3.83;;;;;;;;;;5145145;27;20269;-89
2021/12/15 12:05:32;;;;;;;3.63;2.90;;;;;;;;;;5156073;27;20194;-90
2021/12/15 12:07:59;;;;;;;3.83;2.60;;;;;;;;;;5153231;27;20198;-91
2021/12/15 12:10:32;;;;;;;2.73;2.30;;;;;;;;;;5139464;27;20246;-90
2021/12/15 12:13:29;;;;;;;2.57;2.37;;;;;;;;;;5154180;27;20206;-91
2021/12/15 12:15:57;;;;;;;2.90;2.10;;;;;;;;;;5153676;27;20203;-90
2021/12/15 12:18:26;;;;;;;3.57;2.70;;;;;;;;;;5156070;27;20248;-91
2021/12/15 12:20:54;;;;;;;2.67;2.47;;;;;;;;;;5139639;27;20226;-91
2021/12/15 12:23:23;;;;;;;2.70;2.50;;;;;;;;;;5155413;27;20749;-90
2021/12/15 12:25:53;;;;;;;2.67;2.20;;;;;;;;;;5141501;27;20203;-91
2021/12/15 12:28:22;;;;;;;2.87;2.53;;;;;;;;;;5145851;27;20595;-91
2021/12/15 12:30:50;;;;;;;2.60;2.30;;;;;;;;;;5140802;27;20279;-91
2021/12/15 12:33:19;;;;;;;5.53;2.83;;;;;;;;;;5154392;27;20202;-91
2021/12/15 12:35:47;;;;;;;3.30;3.00;;;;;;;;;;5156790;27;20234;-90
2021/12/15 12:38:16;;;;;;;3.10;2.80;;;;;;;;;;5141764;27;20200;-91
2021/12/15 12:40:51;;;;;;;3.33;3.03;;;;;;;;;;5147829;27;20227;-89
2021/12/15 12:43:21;;;;;;;3.33;2.73;;;;;;;;;;5147129;27;20213;-90
2021/12/15 12:45:56;;;;;;;3.27;2.80;;;;;;;;;;5139148;27;20203;-89
2021/12/15 12:48:41;;;;;;;3.40;3.10;;;;;;;;;;5146513;27;20205;-91
2021/12/15 12:59:38;;;;;;;3.70;3.30;;;;;;;;;;5142769;27;20242;-90
2021/12/15 13:02:39;;;;;;;3.97;3.23;;;;;;;;;;5155019;27;20222;-90
2021/12/15 13:05:10;;;;;;;2.90;2.70;;;;;;;;;;5146020;27;20250;-91
2021/12/15 13:07:47;;;;;;;5.03;3.30;;;;;;;;;;5149427;27;20276;-91
2021/12/15 13:10:15;;;;;;;3.50;3.07;;;;;;;;;;5134445;27;20227;-89
2021/12/15 13:12:48;;;;;;;2.80;2.60;;;;;;;;;;5142291;27;20259;-90
2021/12/15 13:15:19;;;;;;;3.27;2.70;;;;;;;;;;5144142;27;20600;-90
2021/12/15 13:18:00;;;;;;;3.40;2.70;;;;;;;;;;5154760;27;20203;-90
2021/12/15 13:20:30;;;;;;;2.90;2.70;;;;;;;;;;5148678;27;20253;-91
2021/12/15 13:23:09;;;;;;;4.40;3.90;;;;;;;;;;5146798;27;20313;-90
2021/12/15 13:28:48;;;;;;;4.93;3.70;;;;;;;;;;5136264;27;20201;-90
2021/12/15 13:31:24;;;;;;;7.03;4.40;;;;;;;;;;5139594;27;20709;-93
2021/12/15 13:33:56;;;;;;;8.47;6.20;;;;;;;;;;5130710;27;20210;-91
2021/12/15 13:36:24;;;;;;;4.10;3.70;;;;;;;;;;5139840;27;20203;-93
2021/12/15 13:38:53;;;;;;;17.30;9.47;;;;;;;;;;5148273;27;20198;-92
2021/12/15 13:41:26;;;;;;;11.93;7.00;;;;;;;;;;5151628;27;20258;-93
2021/12/15 13:43:55;;;;;;;9.67;6.77;;;;;;;;;;5138579;27;20226;-92
2021/12/15 13:46:38;;;;;;;6.90;5.00;;;;;;;;;;5144514;27;20203;-93
2021/12/15 13:49:11;;;;;;;5.27;4.37;;;;;;;;;;5150219;27;20202;-93
2021/12/15 13:51:55;;;;;;;3.77;3.40;;;;;;;;;;5145271;27;20223;-93
2021/12/15 13:54:45;;;;;;;3.87;3.10;;;;;;;;;;5141236;27;20194;-90
2021/12/15 13:57:18;;;;;;;4.33;3.37;;;;;;;;;;5130313;28;20214;-89
2021/12/15 13:59:46;;;;;;;4.80;3.80;;;;;;;;;;5130635;27;20219;-91
2021/12/15 14:02:16;;;;;;;3.43;3.10;;;;;;;;;;5144087;27;20606;-91
2021/12/15 14:04:45;;;;;;;4.13;3.10;;;;;;;;;;5141396;27;20255;-91
2021/12/15 14:07:33;;;;;;;4.47;3.47;;;;;;;;;;5129530;28;20560;-90
2021/12/15 14:10:18;;;;;;;4.53;3.73;;;;;;;;;;5143874;27;20257;-91
2021/12/15 14:12:52;;;;;;;4.50;4.10;;;;;;;;;;5146742;27;20199;-89
2021/12/15 14:15:41;;;;;;;4.40;3.93;;;;;;;;;;5149626;27;20206;-91
2021/12/15 14:18:11;;;;;;;5.63;4.70;;;;;;;;;;5141157;27;20203;-91
2021/12/15 14:20:48;;;;;;;4.37;3.50;;;;;;;;;;5151135;27;20221;-91
2021/12/15 14:23:16;;;;;;;4.67;3.77;;;;;;;;;;5149526;27;20210;-91
2021/12/15 14:25:48;;;;;;;6.30;4.53;;;;;;;;;;5151526;27;20226;-91
2021/12/15 14:28:16;;;;;;;4.27;3.33;;;;;;;;;;5144458;27;20677;-91
2021/12/15 14:30:46;;;;;;;4.50;3.70;;;;;;;;;;5144171;27;20227;-90
2021/12/15 14:33:25;;;;;;;4.57;3.67;;;;;;;;;;5141586;27;20243;-90
2021/12/15 14:35:54;;;;;;;4.77;4.00;;;;;;;;;;5147546;27;20646;-91
2021/12/15 14:38:32;;;;;;;4.47;3.93;;;;;;;;;;5143784;27;20207;-91
2021/12/15 14:41:00;;;;;;;4.60;4.17;;;;;;;;;;5136455;27;20322;-90
2021/12/15 14:43:27;;;;;;;4.87;3.77;;;;;;;;;;5153983;27;20306;-89
2021/12/15 14:45:55;;;;;;;5.50;4.40;;;;;;;;;;5155432;27;20198;-89
2021/12/15 14:48:24;;;;;;;4.90;4.17;;;;;;;;;;5156168;27;20203;-90
2021/12/15 14:50:51;;;;;;;4.30;3.73;;;;;;;;;;5154908;27;20222;-89
2021/12/15 14:53:19;;;;;;;5.70;4.33;;;;;;;;;;5152430;27;20203;-90
2021/12/15 14:55:47;;;;;;;5.10;4.00;;;;;;;;;;5137055;27;20207;-90
2021/12/15 14:58:19;;;;;;;5.80;4.43;;;;;;;;;;5150311;27;20282;-90
2021/12/15 15:00:47;;;;;;;5.83;4.43;;;;;;;;;;5157020;27;20694;-90
2021/12/15 15:03:15;;;;;;;6.30;3.87;;;;;;;;;;5156612;27;20211;-91
2021/12/15 15:05:45;;;;;;;4.33;3.93;;;;;;;;;;5152596;27;20202;-90
2021/12/15 15:08:15;;;;;;;5.47;4.50;;;;;;;;;;5154730;27;20247;-90
2021/12/15 15:10:44;;;;;;;6.13;4.03;;;;;;;;;;5157150;27;20759;-90
2021/12/15 15:13:11;;;;;;;5.40;4.50;;;;;;;;;;5154730;27;20205;-89
2021/12/15 15:15:40;;;;;;;6.07;4.43;;;;;;;;;;5152829;27;20198;-90
2021/12/15 15:18:18;;;;;;;5.30;4.77;;;;;;;;;;5144593;27;20222;-90
2021/12/15 15:20:48;;;;;;;5.33;4.00;;;;;;;;;;5143980;27;20223;-91
2021/12/15 15:23:17;;;;;;;7.37;5.07;;;;;;;;;;5147962;27;20221;-91
2021/12/15 15:25:47;;;;;;;5.77;4.57;;;;;;;;;;5159366;27;20274;-91
2021/12/15 15:28:16;;;;;;;5.83;4.63;;;;;;;;;;5154825;27;20675;-90
2021/12/15 15:30:43;;;;;;;5.10;4.60;;;;;;;;;;5158859;27;20698;-90
2021/12/15 15:33:12;;;;;;;6.20;4.80;;;;;;;;;;5158989;27;20195;-90
2021/12/15 15:35:43;;;;;;;7.53;5.23;;;;;;;;;;5158942;27;20206;-90
2021/12/15 15:38:13;;;;;;;6.03;4.60;;;;;;;;;;5150726;27;20203;-91
2021/12/15 15:40:42;;;;;;;5.60;5.00;;;;;;;;;;5156618;27;20634;-91
2021/12/15 15:43:10;;;;;;;5.40;4.73;;;;;;;;;;5156995;27;20215;-90
2021/12/15 15:45:39;;;;;;;5.83;5.23;;;;;;;;;;5156859;27;20259;-93
2021/12/15 15:48:08;;;;;;;6.73;5.23;;;;;;;;;;5151859;27;20282;-90
2021/12/15 15:50:37;;;;;;;5.50;4.47;;;;;;;;;;5156404;27;20210;-91
2021/12/15 15:53:05;;;;;;;6.03;4.60;;;;;;;;;;5156642;27;20198;-91
2021/12/15 15:55:34;;;;;;;6.37;4.47;;;;;;;;;;5152617;27;20195;-90
2021/12/15 15:58:06;;;;;;;6.70;4.80;;;;;;;;;;5151038;27;20211;-90
2021/12/15 16:00:36;;;;;;;5.60;4.70;;;;;;;;;;5156238;27;20218;-90
2021/12/15 16:03:03;;;;;;;6.77;4.83;;;;;;;;;;5147468;27;20271;-90
2021/12/15 16:05:31;;;;;;;5.70;4.97;;;;;;;;;;5150263;27;20201;-90